createdAt,value
2023-05-08T00:00:11.269Z,100537.35
2023-05-08T00:01:11.131Z,100535.92
2023-05-08T00:02:11.093Z,100534.87
2023-05-08T00:03:11.236Z,100535.22
2023-05-08T00:04:11.280Z,100532.92
2023-05-08T00:05:11.171Z,100537.45
2023-05-08T00:06:11.085Z,100533.84
2023-05-08T00:07:11.092Z,100533.34
2023-05-08T00:08:11.080Z,100534.57
2023-05-08T00:09:11.117Z,100533.09
2023-05-08T00:10:11.336Z,100532.79
2023-05-08T00:11:11.096Z,100532.28
2023-05-08T00:12:11.080Z,100532.09
2023-05-08T00:13:11.118Z,100528.96
2023-05-08T00:14:11.082Z,100524.22
2023-05-08T00:15:11.095Z,100526.82
2023-05-08T00:16:11.117Z,100524.77
2023-05-08T00:17:11.084Z,100526.31
2023-05-08T00:18:11.086Z,100524.07
2023-05-08T00:19:11.088Z,100527.22
2023-05-08T00:20:11.373Z,100526.67
2023-05-08T00:21:11.097Z,100529.54
2023-05-08T00:22:11.094Z,100530.21
2023-05-08T00:23:11.082Z,100531.33
2023-05-08T00:24:11.118Z,100534.78
2023-05-08T00:25:11.127Z,100532.47
2023-05-08T00:26:11.116Z,100532.38
2023-05-08T00:27:11.086Z,100532.39
2023-05-08T00:28:11.095Z,100531.30
2023-05-08T00:29:11.086Z,100532.95
2023-05-08T00:30:11.383Z,100527.83
2023-05-08T00:31:11.092Z,100531.55
2023-05-08T00:32:11.093Z,100531.17
2023-05-08T00:33:11.171Z,100528.84
2023-05-08T00:34:11.094Z,100530.29
2023-05-08T00:35:11.086Z,100532.82
2023-05-08T00:36:11.100Z,100535.62
2023-05-08T00:37:11.091Z,100534.48
2023-05-08T00:38:11.094Z,100533.76
2023-05-08T00:39:11.088Z,100533.43
2023-05-08T00:40:11.394Z,100528.27
2023-05-08T00:41:11.085Z,100528.39
2023-05-08T00:42:11.081Z,100527.73
2023-05-08T00:43:11.094Z,100523.52
2023-05-08T00:44:11.087Z,100521.99
2023-05-08T00:45:11.084Z,100524.00
2023-05-08T00:46:11.096Z,100523.44
2023-05-08T00:47:11.088Z,100524.30
2023-05-08T00:48:11.100Z,100525.05
2023-05-08T00:49:11.095Z,100521.23
2023-05-08T00:50:11.249Z,100516.99
2023-05-08T00:51:11.088Z,100517.82
2023-05-08T00:52:12.095Z,100516.58
2023-05-08T00:53:11.087Z,100520.47
2023-05-08T00:54:11.088Z,100518.33
2023-05-08T00:55:11.101Z,100516.86
2023-05-08T00:56:12.088Z,100519.00
2023-05-08T00:57:11.083Z,100515.77
2023-05-08T00:58:11.086Z,100514.45
2023-05-08T00:59:11.089Z,100513.29
2023-05-08T01:00:11.268Z,100512.14
2023-05-08T01:01:11.097Z,100514.00
2023-05-08T01:02:11.134Z,100515.18
2023-05-08T01:03:11.182Z,100518.74
2023-05-08T01:04:11.066Z,100517.03
2023-05-08T01:05:11.066Z,100517.95
2023-05-08T01:06:11.064Z,100515.77
2023-05-08T01:07:11.059Z,100517.59
2023-05-08T01:08:11.071Z,100516.60
2023-05-08T01:09:11.078Z,100516.12
2023-05-08T01:10:11.292Z,100517.88
2023-05-08T01:11:19.066Z,100519.25
2023-05-08T01:12:19.063Z,100520.23
2023-05-08T01:13:19.214Z,100518.32
2023-05-08T01:14:19.072Z,100516.90
2023-05-08T01:15:19.070Z,100516.25
2023-05-08T01:16:16.180Z,100511.19
2023-05-08T01:17:20.079Z,100512.34
2023-05-08T01:18:19.079Z,100512.67
2023-05-08T01:19:19.088Z,100509.07
2023-05-08T01:20:19.066Z,100513.12
2023-05-08T01:21:19.075Z,100512.58
2023-05-08T01:22:19.068Z,100508.30
2023-05-08T01:23:19.074Z,100508.57
2023-05-08T01:24:19.108Z,100512.07
2023-05-08T01:25:19.069Z,100506.86
2023-05-08T01:26:19.086Z,100505.27
2023-05-08T01:27:19.076Z,100504.62
2023-05-08T01:28:19.073Z,100502.03
2023-05-08T01:29:19.080Z,100502.36
2023-05-08T01:30:21.065Z,100502.63
2023-05-08T01:31:19.077Z,100498.51
2023-05-08T01:32:19.084Z,100502.02
2023-05-08T01:33:15.168Z,100501.27
2023-05-08T01:34:16.077Z,100500.05
2023-05-08T01:35:19.069Z,100497.26
2023-05-08T01:36:19.084Z,100492.27
2023-05-08T01:37:14.081Z,100494.25
2023-05-08T01:38:23.079Z,100494.26
2023-05-08T01:39:19.080Z,100494.63
2023-05-08T01:40:17.112Z,100494.86
2023-05-08T01:41:15.073Z,100497.32
2023-05-08T01:42:21.077Z,100494.25
2023-05-08T01:43:20.078Z,100495.18
2023-05-08T01:44:21.086Z,100495.18
2023-05-08T01:45:18.067Z,100489.20
2023-05-08T01:46:18.100Z,100492.49
2023-05-08T01:47:11.097Z,100491.00
2023-05-08T01:48:15.067Z,100485.24
2023-05-08T01:49:12.065Z,100488.42
2023-05-08T01:50:18.079Z,100485.58
2023-05-08T01:51:15.073Z,100485.86
2023-05-08T01:52:20.068Z,100484.33
2023-05-08T01:53:21.070Z,100482.07
2023-05-08T01:54:14.079Z,100479.61
2023-05-08T01:55:17.074Z,100479.39
2023-05-08T01:56:12.080Z,100477.35
2023-05-08T01:57:11.080Z,100477.04
2023-05-08T01:58:11.085Z,100473.91
2023-05-08T01:59:12.071Z,100475.61
2023-05-08T02:00:11.189Z,100476.47
2023-05-08T02:01:12.093Z,100472.07
2023-05-08T02:02:11.132Z,100475.58
2023-05-08T02:03:11.148Z,100472.69
2023-05-08T02:04:11.133Z,100471.71
2023-05-08T02:05:11.071Z,100468.68
2023-05-08T02:06:12.081Z,100468.19
2023-05-08T02:07:11.074Z,100469.57
2023-05-08T02:08:11.079Z,100471.15
2023-05-08T02:09:11.073Z,100470.28
2023-05-08T02:10:11.413Z,100471.55
2023-05-08T02:11:11.072Z,100473.70
2023-05-08T02:12:11.072Z,100471.38
2023-05-08T02:13:11.145Z,100467.54
2023-05-08T02:14:11.073Z,100470.02
2023-05-08T02:15:12.096Z,100470.52
2023-05-08T02:16:11.092Z,100471.94
2023-05-08T02:17:11.077Z,100466.36
2023-05-08T02:18:11.076Z,100470.91
2023-05-08T02:19:11.085Z,100470.80
2023-05-08T02:20:11.241Z,100465.87
2023-05-08T02:21:12.075Z,100467.57
2023-05-08T02:22:11.077Z,100466.31
2023-05-08T02:23:11.072Z,100462.86
2023-05-08T02:24:11.077Z,100461.42
2023-05-08T02:25:11.077Z,100463.20
2023-05-08T02:26:11.075Z,100463.95
2023-05-08T02:27:11.077Z,100465.16
2023-05-08T02:28:11.078Z,100464.99
2023-05-08T02:29:11.072Z,100460.17
2023-05-08T02:30:11.258Z,100459.35
2023-05-08T02:31:13.086Z,100457.53
2023-05-08T02:32:11.147Z,100457.32
2023-05-08T02:33:11.127Z,100458.53
2023-05-08T02:34:11.081Z,100458.48
2023-05-08T02:35:14.075Z,100458.35
2023-05-08T02:36:11.082Z,100451.84
2023-05-08T02:37:11.079Z,100453.68
2023-05-08T02:38:15.075Z,100456.39
2023-05-08T02:39:13.090Z,100452.05
2023-05-08T02:40:11.293Z,100451.33
2023-05-08T02:41:11.076Z,100452.32
2023-05-08T02:42:11.075Z,100446.94
2023-05-08T02:43:11.081Z,100447.86
2023-05-08T02:44:11.076Z,100449.75
2023-05-08T02:45:11.083Z,100446.95
2023-05-08T02:46:18.127Z,100444.09
2023-05-08T02:47:21.106Z,100444.36
2023-05-08T02:48:21.096Z,100445.95
2023-05-08T02:49:18.081Z,100445.84
2023-05-08T02:50:20.094Z,100448.43
2023-05-08T02:51:18.095Z,100446.23
2023-05-08T02:52:21.080Z,100447.04
2023-05-08T02:53:16.077Z,100443.15
2023-05-08T02:54:14.083Z,100441.56
2023-05-08T02:55:21.083Z,100444.04
2023-05-08T02:56:16.074Z,100440.96
2023-05-08T02:57:19.089Z,100440.09
2023-05-08T02:58:19.087Z,100436.28
2023-05-08T02:59:19.105Z,100430.07
2023-05-08T03:00:19.076Z,100431.38
2023-05-08T03:01:19.121Z,100432.63
2023-05-08T03:02:16.149Z,100426.27
2023-05-08T03:03:19.151Z,100427.67
2023-05-08T03:04:12.083Z,100427.08
2023-05-08T03:05:17.080Z,100423.91
2023-05-08T03:06:13.084Z,100423.18
2023-05-08T03:07:11.099Z,100424.07
2023-05-08T03:08:15.074Z,100423.64
2023-05-08T03:09:18.098Z,100422.61
2023-05-08T03:10:13.331Z,100420.23
2023-05-08T03:11:17.073Z,100419.69
2023-05-08T03:12:16.101Z,100417.65
2023-05-08T03:13:11.125Z,100419.53
2023-05-08T03:14:14.078Z,100415.80
2023-05-08T03:15:19.081Z,100416.70
2023-05-08T03:16:16.103Z,100412.23
2023-05-08T03:17:12.078Z,100409.69
2023-05-08T03:18:16.073Z,100405.57
2023-05-08T03:19:19.986Z,100409.59
2023-05-08T03:20:12.348Z,100408.10
2023-05-08T03:21:11.086Z,100413.08
2023-05-08T03:22:11.082Z,100408.68
2023-05-08T03:23:11.099Z,100409.39
2023-05-08T03:24:11.079Z,100406.59
2023-05-08T03:25:11.077Z,100410.20
2023-05-08T03:26:11.090Z,100409.64
2023-05-08T03:27:11.078Z,100408.50
2023-05-08T03:28:11.081Z,100406.72
2023-05-08T03:29:11.099Z,100404.35
2023-05-08T03:30:11.324Z,100405.76
2023-05-08T03:31:11.122Z,100405.56
2023-05-08T03:32:11.079Z,100407.86
2023-05-08T03:33:11.075Z,100409.78
2023-05-08T03:34:11.081Z,100407.91
2023-05-08T03:35:11.092Z,100409.85
2023-05-08T03:36:11.076Z,100407.05
2023-05-08T03:37:11.085Z,100407.11
2023-05-08T03:38:11.086Z,100401.45
2023-05-08T03:39:11.077Z,100403.87
2023-05-08T03:40:11.235Z,100405.79
2023-05-08T03:41:11.083Z,100400.98
2023-05-08T03:42:11.076Z,100402.26
2023-05-08T03:43:11.077Z,100402.25
2023-05-08T03:44:11.090Z,100402.63
2023-05-08T03:45:11.080Z,100406.41
2023-05-08T03:46:12.096Z,100406.73
2023-05-08T03:47:11.119Z,100405.52
2023-05-08T03:48:11.130Z,100404.28
2023-05-08T03:49:11.080Z,100408.72
2023-05-08T03:50:11.294Z,100404.44
2023-05-08T03:51:11.078Z,100403.45
2023-05-08T03:52:11.095Z,100401.71
2023-05-08T03:53:11.084Z,100403.56
2023-05-08T03:54:11.080Z,100402.75
2023-05-08T03:55:11.097Z,100402.75
2023-05-08T03:56:11.092Z,100399.73
2023-05-08T03:57:11.080Z,100404.45
2023-05-08T03:58:20.101Z,100401.16
2023-05-08T03:59:16.091Z,100400.29
2023-05-08T04:00:21.085Z,100401.65
2023-05-08T04:01:17.073Z,100400.57
2023-05-08T04:02:19.128Z,100403.35
2023-05-08T04:03:22.139Z,100401.26
2023-05-08T04:04:21.088Z,100400.65
2023-05-08T04:05:20.062Z,100400.06
2023-05-08T04:06:16.067Z,100398.24
2023-05-08T04:07:19.063Z,100394.22
2023-05-08T04:08:19.121Z,100394.82
2023-05-08T04:09:17.063Z,100395.49
2023-05-08T04:10:21.065Z,100395.53
2023-05-08T04:11:19.075Z,100397.38
2023-05-08T04:12:19.075Z,100393.54
2023-05-08T04:13:19.143Z,100394.56
2023-05-08T04:14:16.072Z,100393.12
2023-05-08T04:15:18.084Z,100393.99
2023-05-08T04:16:19.092Z,100390.10
2023-05-08T04:17:14.078Z,100391.56
2023-05-08T04:18:12.100Z,100392.17
2023-05-08T04:19:19.072Z,100393.98
2023-05-08T04:20:13.069Z,100392.67
2023-05-08T04:21:11.070Z,100390.15
2023-05-08T04:22:11.073Z,100394.98
2023-05-08T04:23:13.073Z,100389.12
2023-05-08T04:24:12.071Z,100389.41
2023-05-08T04:25:11.409Z,100391.37
2023-05-08T04:26:11.070Z,100390.97
2023-05-08T04:27:11.082Z,100391.55
2023-05-08T04:28:11.071Z,100386.10
2023-05-08T04:29:11.075Z,100386.16
2023-05-08T04:30:11.079Z,100387.05
2023-05-08T04:31:11.074Z,100388.49
2023-05-08T04:32:11.108Z,100386.24
2023-05-08T04:33:11.131Z,100384.22
2023-05-08T04:34:11.069Z,100386.57
2023-05-08T04:35:11.263Z,100385.86
2023-05-08T04:36:13.081Z,100387.24
2023-05-08T04:37:15.086Z,100384.34
2023-05-08T04:38:11.081Z,100385.07
2023-05-08T04:39:11.080Z,100388.18
2023-05-08T04:40:11.078Z,100387.04
2023-05-08T04:41:11.172Z,100385.73
2023-05-08T04:42:11.083Z,100386.09
2023-05-08T04:43:11.080Z,100385.66
2023-05-08T04:44:11.074Z,100386.29
2023-05-08T04:45:11.274Z,100387.33
2023-05-08T04:46:11.121Z,100386.07
2023-05-08T04:47:11.072Z,100385.51
2023-05-08T04:48:11.096Z,100389.84
2023-05-08T04:49:11.077Z,100389.34
2023-05-08T04:50:11.093Z,100389.95
2023-05-08T04:51:11.101Z,100390.38
2023-05-08T04:52:11.097Z,100392.35
2023-05-08T04:53:11.076Z,100389.12
2023-05-08T04:54:11.091Z,100389.99
2023-05-08T04:55:11.274Z,100386.94
2023-05-08T04:56:11.075Z,100386.82
2023-05-08T04:57:11.088Z,100384.28
2023-05-08T04:58:11.080Z,100386.08
2023-05-08T04:59:11.072Z,100385.91
2023-05-08T05:00:11.084Z,100385.03
2023-05-08T05:01:11.085Z,100383.82
2023-05-08T05:02:12.079Z,100383.59
2023-05-08T05:03:11.201Z,100379.38
2023-05-08T05:04:11.098Z,100385.18
2023-05-08T05:05:11.364Z,100380.07
2023-05-08T05:06:11.082Z,100382.16
2023-05-08T05:07:11.073Z,100379.29
2023-05-08T05:08:11.078Z,100384.88
2023-05-08T05:09:11.085Z,100383.51
2023-05-08T05:10:11.074Z,100383.52
2023-05-08T05:11:11.080Z,100382.27
2023-05-08T05:12:11.090Z,100384.50
2023-05-08T05:13:11.180Z,100384.63
2023-05-08T05:14:11.083Z,100382.73
2023-05-08T05:15:11.256Z,100383.50
2023-05-08T05:16:11.175Z,100381.50
2023-05-08T05:17:11.077Z,100382.36
2023-05-08T05:18:11.100Z,100382.57
2023-05-08T05:19:11.078Z,100382.89
2023-05-08T05:20:11.080Z,100382.24
2023-05-08T05:21:11.079Z,100379.95
2023-05-08T05:22:11.077Z,100380.88
2023-05-08T05:23:11.073Z,100381.82
2023-05-08T05:24:11.082Z,100382.06
2023-05-08T05:25:11.496Z,100384.16
2023-05-08T05:26:11.076Z,100383.03
2023-05-08T05:27:11.083Z,100382.34
2023-05-08T05:28:11.081Z,100383.87
2023-05-08T05:29:11.080Z,100386.36
2023-05-08T05:30:11.284Z,100386.60
2023-05-08T05:31:11.083Z,100384.93
2023-05-08T05:32:13.079Z,100388.82
2023-05-08T05:33:11.087Z,100383.97
2023-05-08T05:34:11.071Z,100386.58
2023-05-08T05:35:11.287Z,100386.59
2023-05-08T05:36:11.084Z,100383.27
2023-05-08T05:37:11.080Z,100386.22
2023-05-08T05:38:11.080Z,100388.62
2023-05-08T05:39:11.083Z,100390.96
2023-05-08T05:40:11.075Z,100392.24
2023-05-08T05:41:11.076Z,100389.88
2023-05-08T05:42:11.080Z,100391.91
2023-05-08T05:43:11.080Z,100393.64
2023-05-08T05:44:11.076Z,100390.98
2023-05-08T05:45:11.402Z,100394.32
2023-05-08T05:46:11.086Z,100394.43
2023-05-08T05:47:11.200Z,100397.91
2023-05-08T05:48:11.127Z,100395.98
2023-05-08T05:49:11.072Z,100395.13
2023-05-08T05:50:11.229Z,100393.23
2023-05-08T05:51:11.076Z,100394.40
2023-05-08T05:52:11.074Z,100396.80
2023-05-08T05:53:11.094Z,100388.79
2023-05-08T05:54:11.083Z,100392.50
2023-05-08T05:55:11.252Z,100388.99
2023-05-08T05:56:11.078Z,100392.50
2023-05-08T05:57:11.100Z,100390.17
2023-05-08T05:58:11.076Z,100391.25
2023-05-08T05:59:11.080Z,100388.84
2023-05-08T06:00:11.074Z,100389.18
2023-05-08T06:01:11.079Z,100388.59
2023-05-08T06:02:11.109Z,100391.41
2023-05-08T06:03:11.218Z,100388.61
2023-05-08T06:04:11.193Z,100393.31
2023-05-08T06:05:11.385Z,100393.35
2023-05-08T06:06:11.084Z,100391.52
2023-05-08T06:07:11.083Z,100390.05
2023-05-08T06:08:11.091Z,100396.09
2023-05-08T06:09:12.080Z,100396.73
2023-05-08T06:10:11.127Z,100389.66
2023-05-08T06:11:11.082Z,100394.90
2023-05-08T06:12:11.079Z,100390.34
2023-05-08T06:13:11.150Z,100394.52
2023-05-08T06:14:11.090Z,100392.96
2023-05-08T06:15:11.427Z,100393.57
2023-05-08T06:16:11.080Z,100395.70
2023-05-08T06:17:11.144Z,100401.02
2023-05-08T06:18:11.146Z,100396.42
2023-05-08T06:19:11.075Z,100396.09
2023-05-08T06:20:11.087Z,100395.09
2023-05-08T06:21:11.083Z,100394.50
2023-05-08T06:22:11.088Z,100393.61
2023-05-08T06:23:11.089Z,100396.47
2023-05-08T06:24:11.080Z,100394.82
2023-05-08T06:25:11.326Z,100394.42
2023-05-08T06:26:11.079Z,100390.48
2023-05-08T06:27:11.080Z,100395.91
2023-05-08T06:28:11.076Z,100393.67
2023-05-08T06:29:11.097Z,100395.13
2023-05-08T06:30:12.080Z,100395.37
2023-05-08T06:31:11.157Z,100396.45
2023-05-08T06:32:11.084Z,100395.89
2023-05-08T06:33:11.089Z,100398.37
2023-05-08T06:34:11.088Z,100398.11
2023-05-08T06:35:11.175Z,100397.07
2023-05-08T06:36:11.088Z,100394.42
2023-05-08T06:37:11.100Z,100392.43
2023-05-08T06:38:11.093Z,100398.70
2023-05-08T06:39:11.082Z,100393.29
2023-05-08T06:40:12.553Z,100392.90
2023-05-08T06:41:12.033Z,100393.16
2023-05-08T06:42:11.091Z,100389.17
2023-05-08T06:43:11.085Z,100387.52
2023-05-08T06:44:11.094Z,100386.31
2023-05-08T06:45:11.381Z,100385.80
2023-05-08T06:46:11.129Z,100390.75
2023-05-08T06:47:11.087Z,100392.46
2023-05-08T06:48:11.098Z,100393.06
2023-05-08T06:49:11.084Z,100389.08
2023-05-08T06:50:11.098Z,100395.73
2023-05-08T06:51:11.085Z,100392.78
2023-05-08T06:52:11.080Z,100394.31
2023-05-08T06:53:11.111Z,100392.92
2023-05-08T06:54:12.108Z,100389.88
2023-05-08T06:55:11.312Z,100390.74
2023-05-08T06:56:11.094Z,100394.62
2023-05-08T06:57:12.011Z,100390.70
2023-05-08T06:58:11.091Z,100389.88
2023-05-08T06:59:11.087Z,100395.46
2023-05-08T07:00:11.090Z,100395.49
2023-05-08T07:01:11.081Z,100395.29
2023-05-08T07:02:11.293Z,100391.46
2023-05-08T07:03:11.111Z,100390.66
2023-05-08T07:04:11.093Z,100392.04
2023-05-08T07:05:11.301Z,100392.40
2023-05-08T07:06:11.064Z,100393.61
2023-05-08T07:07:11.060Z,100390.64
2023-05-08T07:08:11.066Z,100388.89
2023-05-08T07:09:11.066Z,100397.37
2023-05-08T07:10:11.059Z,100393.78
2023-05-08T07:11:11.104Z,100391.40
2023-05-08T07:12:11.066Z,100394.22
2023-05-08T07:13:11.101Z,100391.15
2023-05-08T07:14:11.068Z,100391.31
2023-05-08T07:15:24.887Z,100395.13
2023-05-08T07:16:14.401Z,100387.89
2023-05-08T07:17:13.090Z,100391.29
2023-05-08T07:18:11.096Z,100386.78
2023-05-08T07:19:11.064Z,100389.74
2023-05-08T07:20:11.064Z,100390.02
2023-05-08T07:21:11.071Z,100388.93
2023-05-08T07:22:11.130Z,100392.71
2023-05-08T07:23:11.068Z,100386.71
2023-05-08T07:24:11.067Z,100390.97
2023-05-08T07:25:11.300Z,100389.14
2023-05-08T07:26:11.069Z,100390.49
2023-05-08T07:27:11.069Z,100390.62
2023-05-08T07:28:11.077Z,100391.43
2023-05-08T07:29:11.074Z,100391.19
2023-05-08T07:30:11.068Z,100391.18
2023-05-08T07:31:12.151Z,100388.38
2023-05-08T07:32:11.076Z,100385.93
2023-05-08T07:33:11.071Z,100388.48
2023-05-08T07:34:11.068Z,100384.49
2023-05-08T07:35:12.276Z,100387.66
2023-05-08T07:36:11.066Z,100386.52
2023-05-08T07:37:11.065Z,100384.42
2023-05-08T07:38:11.070Z,100384.31
2023-05-08T07:39:11.072Z,100386.70
2023-05-08T07:40:11.067Z,100384.57
2023-05-08T07:41:11.135Z,100385.73
2023-05-08T07:42:11.068Z,100385.23
2023-05-08T07:43:11.071Z,100385.36
2023-05-08T07:44:11.076Z,100385.08
2023-05-08T07:45:11.204Z,100382.16
2023-05-08T07:46:15.086Z,100386.71
2023-05-08T07:47:11.174Z,100387.05
2023-05-08T07:48:11.147Z,100383.05
2023-05-08T07:49:11.067Z,100381.29
2023-05-08T07:50:11.073Z,100381.92
2023-05-08T07:51:11.075Z,100387.44
2023-05-08T07:52:11.080Z,100380.70
2023-05-08T07:53:11.107Z,100382.14
2023-05-08T07:54:11.077Z,100386.32
2023-05-08T07:55:11.334Z,100384.01
2023-05-08T07:56:11.090Z,100387.50
2023-05-08T07:57:11.072Z,100381.15
2023-05-08T07:58:11.064Z,100385.16
2023-05-08T07:59:11.078Z,100385.02
2023-05-08T08:00:14.084Z,100389.78
2023-05-08T08:01:11.065Z,100383.81
2023-05-08T08:02:11.125Z,100384.46
2023-05-08T08:03:11.115Z,100385.22
2023-05-08T08:04:12.795Z,100377.44
2023-05-08T08:05:11.416Z,100385.11
2023-05-08T08:06:11.075Z,100382.43
2023-05-08T08:07:11.074Z,100386.36
2023-05-08T08:08:11.073Z,100382.95
2023-05-08T08:09:11.068Z,100380.61
2023-05-08T08:10:11.110Z,100382.54
2023-05-08T08:11:11.076Z,100377.50
2023-05-08T08:12:11.073Z,100375.57
2023-05-08T08:13:11.090Z,100375.83
2023-05-08T08:14:11.077Z,100377.39
2023-05-08T08:15:11.384Z,100383.87
2023-05-08T08:16:11.088Z,100385.56
2023-05-08T08:17:11.203Z,100382.71
2023-05-08T08:18:11.137Z,100385.91
2023-05-08T08:19:11.078Z,100387.73
2023-05-08T08:20:11.080Z,100385.79
2023-05-08T08:21:11.085Z,100391.96
2023-05-08T08:22:11.072Z,100383.95
2023-05-08T08:23:11.092Z,100383.55
2023-05-08T08:24:11.120Z,100386.21
2023-05-08T08:25:11.203Z,100382.64
2023-05-08T08:26:11.077Z,100386.68
2023-05-08T08:27:11.085Z,100381.58
2023-05-08T08:28:11.070Z,100385.86
2023-05-08T08:29:11.108Z,100382.97
2023-05-08T08:30:17.728Z,100382.22
2023-05-08T08:31:13.144Z,100385.53
2023-05-08T08:32:11.074Z,100384.86
2023-05-08T08:33:11.095Z,100380.26
2023-05-08T08:34:11.070Z,100383.94
2023-05-08T08:35:11.359Z,100378.27
2023-05-08T08:36:15.075Z,100376.66
2023-05-08T08:37:12.396Z,100382.07
2023-05-08T08:38:11.073Z,100380.54
2023-05-08T08:39:12.575Z,100382.22
2023-05-08T08:40:11.071Z,100382.20
2023-05-08T08:41:13.071Z,100379.05
2023-05-08T08:42:11.082Z,100375.65
2023-05-08T08:43:11.079Z,100377.77
2023-05-08T08:44:11.074Z,100379.49
2023-05-08T08:45:11.391Z,100377.39
2023-05-08T08:46:13.160Z,100375.43
2023-05-08T08:47:12.075Z,100372.98
2023-05-08T08:48:12.144Z,100377.19
2023-05-08T08:49:13.080Z,100382.80
2023-05-08T08:50:14.262Z,100378.01
2023-05-08T08:51:20.084Z,100378.41
2023-05-08T08:52:17.081Z,100378.35
2023-05-08T08:53:16.078Z,100377.83
2023-05-08T08:54:15.075Z,100374.77
2023-05-08T08:55:11.520Z,100374.73
2023-05-08T08:56:11.080Z,100369.46
2023-05-08T08:57:11.079Z,100366.80
2023-05-08T08:58:19.096Z,100372.29
2023-05-08T08:59:11.080Z,100374.45
2023-05-08T09:00:11.120Z,100367.80
2023-05-08T09:01:14.086Z,100370.51
2023-05-08T09:02:13.287Z,100368.24
2023-05-08T09:03:12.125Z,100372.26
2023-05-08T09:04:11.172Z,100364.92
2023-05-08T09:05:11.395Z,100364.18
2023-05-08T09:06:11.080Z,100366.66
2023-05-08T09:07:12.107Z,100364.42
2023-05-08T09:08:11.085Z,100367.38
2023-05-08T09:09:11.075Z,100366.69
2023-05-08T09:10:11.082Z,100363.05
2023-05-08T09:11:11.085Z,100364.24
2023-05-08T09:12:11.084Z,100366.38
2023-05-08T09:13:11.116Z,100369.21
2023-05-08T09:14:11.077Z,100366.58
2023-05-08T09:15:11.159Z,100369.47
2023-05-08T09:16:11.106Z,100368.43
2023-05-08T09:17:11.082Z,100365.59
2023-05-08T09:18:11.170Z,100362.07
2023-05-08T09:19:13.083Z,100364.11
2023-05-08T09:20:11.422Z,100357.74
2023-05-08T09:21:11.080Z,100362.86
2023-05-08T09:22:13.082Z,100356.59
2023-05-08T09:23:11.081Z,100354.72
2023-05-08T09:24:11.089Z,100352.20
2023-05-08T09:25:11.228Z,100349.67
2023-05-08T09:26:11.092Z,100339.89
2023-05-08T09:27:20.084Z,100340.73
2023-05-08T09:28:19.107Z,100339.11
2023-05-08T09:29:15.084Z,100335.04
2023-05-08T09:30:11.090Z,100332.41
2023-05-08T09:31:11.136Z,100324.83
2023-05-08T09:32:18.107Z,100317.39
2023-05-08T09:33:11.142Z,100322.82
2023-05-08T09:34:11.092Z,100320.60
2023-05-08T09:35:11.357Z,100320.25
2023-05-08T09:36:19.081Z,100321.31
2023-05-08T09:37:13.080Z,100323.34
2023-05-08T09:38:15.086Z,100322.57
2023-05-08T09:39:13.098Z,100315.95
2023-05-08T09:40:18.082Z,100325.77
2023-05-08T09:41:14.091Z,100329.30
2023-05-08T09:42:11.096Z,100325.61
2023-05-08T09:43:15.082Z,100324.46
2023-05-08T09:44:11.080Z,100326.09
2023-05-08T09:45:11.522Z,100322.82
2023-05-08T09:46:19.293Z,100323.09
2023-05-08T09:47:13.086Z,100319.40
2023-05-08T09:48:11.130Z,100319.27
2023-05-08T09:49:16.104Z,100317.87
2023-05-08T09:50:11.177Z,100317.15
2023-05-08T09:51:11.092Z,100309.39
2023-05-08T09:52:15.136Z,100307.79
2023-05-08T09:53:11.082Z,100316.53
2023-05-08T09:54:17.089Z,100318.86
2023-05-08T09:55:11.109Z,100314.85
2023-05-08T09:56:11.088Z,100318.65
2023-05-08T09:57:13.104Z,100320.02
2023-05-08T09:58:11.093Z,100318.42
2023-05-08T09:59:19.158Z,100323.48
2023-05-08T10:00:11.316Z,100318.39
2023-05-08T10:01:15.104Z,100318.99
2023-05-08T10:02:13.062Z,100319.14
2023-05-08T10:03:11.079Z,100316.33
2023-05-08T10:04:11.087Z,100316.08
2023-05-08T10:05:19.097Z,100309.62
2023-05-08T10:06:15.058Z,100309.32
2023-05-08T10:07:11.068Z,100312.36
2023-05-08T10:08:19.062Z,100310.87
2023-05-08T10:09:15.075Z,100315.14
2023-05-08T10:10:11.231Z,100310.45
2023-05-08T10:11:15.070Z,100305.75
2023-05-08T10:12:11.067Z,100305.34
2023-05-08T10:13:11.124Z,100301.21
2023-05-08T10:14:11.065Z,100296.97
2023-05-08T10:15:11.094Z,100310.50
2023-05-08T10:16:15.113Z,100297.85
2023-05-08T10:17:11.184Z,100298.81
2023-05-08T10:18:11.128Z,100304.05
2023-05-08T10:19:18.062Z,100300.25
2023-05-08T10:20:11.185Z,100302.46
2023-05-08T10:21:11.065Z,100297.14
2023-05-08T10:22:13.063Z,100289.87
2023-05-08T10:23:15.082Z,100292.39
2023-05-08T10:24:20.070Z,100294.55
2023-05-08T10:25:15.061Z,100290.32
2023-05-08T10:26:14.067Z,100292.59
2023-05-08T10:27:17.078Z,100298.42
2023-05-08T10:28:21.069Z,100296.41
2023-05-08T10:29:16.065Z,100301.26
2023-05-08T10:30:12.360Z,100294.77
2023-05-08T10:31:13.120Z,100300.19
2023-05-08T10:32:16.067Z,100296.27
2023-05-08T10:33:11.229Z,100304.64
2023-05-08T10:34:13.070Z,100301.38
2023-05-08T10:35:11.077Z,100314.13
2023-05-08T10:36:11.077Z,100304.05
2023-05-08T10:37:11.101Z,100298.53
2023-05-08T10:38:11.071Z,100304.21
2023-05-08T10:39:11.068Z,100307.70
2023-05-08T10:40:11.332Z,100311.95
2023-05-08T10:41:11.069Z,100311.00
2023-05-08T10:42:11.072Z,100313.14
2023-05-08T10:43:11.066Z,100311.15
2023-05-08T10:44:11.070Z,100311.26
2023-05-08T10:45:11.086Z,100308.08
2023-05-08T10:46:16.155Z,100309.84
2023-05-08T10:47:19.071Z,100301.81
2023-05-08T10:48:19.067Z,100306.19
2023-05-08T10:49:19.075Z,100302.29
2023-05-08T10:50:21.074Z,100310.25
2023-05-08T10:51:18.081Z,100312.41
2023-05-08T10:52:19.081Z,100310.61
2023-05-08T10:53:17.070Z,100310.69
2023-05-08T10:54:19.071Z,100303.88
2023-05-08T10:55:19.082Z,100302.00
2023-05-08T10:56:11.072Z,100299.41
2023-05-08T10:57:11.074Z,100302.73
2023-05-08T10:58:15.114Z,100307.41
2023-05-08T10:59:18.084Z,100305.29
2023-05-08T11:00:11.109Z,100303.09
2023-05-08T11:01:13.155Z,100298.13
2023-05-08T11:02:11.201Z,100298.95
2023-05-08T11:03:20.120Z,100301.92
2023-05-08T11:04:21.261Z,100299.23
2023-05-08T11:05:15.076Z,100300.69
2023-05-08T11:06:11.075Z,100296.98
2023-05-08T11:07:11.070Z,100297.77
2023-05-08T11:08:15.070Z,100297.25
2023-05-08T11:09:14.072Z,100300.60
2023-05-08T11:10:15.220Z,100301.76
2023-05-08T11:11:17.071Z,100304.36
2023-05-08T11:12:19.072Z,100306.27
2023-05-08T11:13:11.094Z,100312.32
2023-05-08T11:14:16.082Z,100321.23
2023-05-08T11:15:11.071Z,100317.24
2023-05-08T11:16:15.103Z,100318.54
2023-05-08T11:17:11.068Z,100310.12
2023-05-08T11:18:16.083Z,100313.70
2023-05-08T11:19:17.147Z,100309.90
2023-05-08T11:20:11.128Z,100306.45
2023-05-08T11:21:15.077Z,100300.88
2023-05-08T11:22:16.084Z,100291.32
2023-05-08T11:23:19.077Z,100289.45
2023-05-08T11:24:12.068Z,100285.28